sensor_id;sensor_type;location;lat;lon;timestamp;temperature;humidity
20384;DHT22;46458;50.966;7.002;2022-08-21T00:00:19;19.80;99.90
20384;DHT22;46458;50.966;7.002;2022-08-21T00:02:52;19.70;99.90
20384;DHT22;46458;50.966;7.002;2022-08-21T00:05:25;19.70;99.90
20384;DHT22;46458;50.966;7.002;2022-08-21T00:07:55;19.70;99.90
20384;DHT22;46458;50.966;7.002;2022-08-21T00:10:24;19.70;99.90
20384;DHT22;46458;50.966;7.002;2022-08-21T00:12:53;19.70;99.90
20384;DHT22;46458;50.966;7.002;2022-08-21T00:15:28;19.70;99.90
20384;DHT22;46458;50.966;7.002;2022-08-21T00:17:57;19.60;99.90
20384;DHT22;46458;50.966;7.002;2022-08-21T00:20:29;19.60;99.90
20384;DHT22;46458;50.966;7.002;2022-08-21T00:22:58;19.60;99.90
20384;DHT22;46458;50.966;7.002;2022-08-21T00:25:27;19.60;99.90
20384;DHT22;46458;50.966;7.002;2022-08-21T00:27:56;19.50;99.90
20384;DHT22;46458;50.966;7.002;2022-08-21T00:30:26;19.50;99.90
20384;DHT22;46458;50.966;7.002;2022-08-21T00:32:57;19.50;99.90
20384;DHT22;46458;50.966;7.002;2022-08-21T00:35:31;19.40;99.90
20384;DHT22;46458;50.966;7.002;2022-08-21T00:38:00;19.40;99.90
20384;DHT22;46458;50.966;7.002;2022-08-21T00:40:33;19.30;99.90
20384;DHT22;46458;50.966;7.002;2022-08-21T00:43:08;19.20;99.90
20384;DHT22;46458;50.966;7.002;2022-08-21T00:45:39;19.10;99.90
20384;DHT22;46458;50.966;7.002;2022-08-21T00:48:08;19.00;99.90
20384;DHT22;46458;50.966;7.002;2022-08-21T00:50:44;18.80;99.90
20384;DHT22;46458;50.966;7.002;2022-08-21T00:53:14;18.80;99.90
20384;DHT22;46458;50.966;7.002;2022-08-21T00:55:43;18.80;99.90
20384;DHT22;46458;50.966;7.002;2022-08-21T00:58:14;18.80;99.90
20384;DHT22;46458;50.966;7.002;2022-08-21T01:00:47;18.80;99.90
20384;DHT22;46458;50.966;7.002;2022-08-21T01:03:19;18.70;99.90
20384;DHT22;46458;50.966;7.002;2022-08-21T01:05:51;18.80;99.90
20384;DHT22;46458;50.966;7.002;2022-08-21T01:08:21;18.80;99.90
20384;DHT22;46458;50.966;7.002;2022-08-21T01:10:52;18.80;99.90
20384;DHT22;46458;50.966;7.002;2022-08-21T01:13:26;18.80;99.90
20384;DHT22;46458;50.966;7.002;2022-08-21T01:15:58;18.80;99.90
20384;DHT22;46458;50.966;7.002;2022-08-21T01:18:28;18.80;99.90
20384;DHT22;46458;50.966;7.002;2022-08-21T01:21:07;18.70;99.90
20384;DHT22;46458;50.966;7.002;2022-08-21T01:23:38;18.70;99.90
20384;DHT22;46458;50.966;7.002;2022-08-21T01:26:08;18.60;99.90
20384;DHT22;46458;50.966;7.002;2022-08-21T01:28:40;18.60;99.90
20384;DHT22;46458;50.966;7.002;2022-08-21T01:31:12;18.60;99.90
20384;DHT22;46458;50.966;7.002;2022-08-21T01:33:42;18.50;99.90
20384;DHT22;46458;50.966;7.002;2022-08-21T01:36:17;18.60;99.90
20384;DHT22;46458;50.966;7.002;2022-08-21T01:38:46;18.60;99.90
20384;DHT22;46458;50.966;7.002;2022-08-21T01:41:16;18.50;99.90
20384;DHT22;46458;50.966;7.002;2022-08-21T01:43:47;18.60;99.90
20384;DHT22;46458;50.966;7.002;2022-08-21T01:46:16;18.90;99.90
20384;DHT22;46458;50.966;7.002;2022-08-21T01:48:45;18.50;99.90
20384;DHT22;46458;50.966;7.002;2022-08-21T01:51:20;18.50;99.90
20384;DHT22;46458;50.966;7.002;2022-08-21T01:53:49;18.40;99.90
20384;DHT22;46458;50.966;7.002;2022-08-21T01:56:18;18.30;99.90
20384;DHT22;46458;50.966;7.002;2022-08-21T01:58:48;18.30;99.90
20384;DHT22;46458;50.966;7.002;2022-08-21T02:01:17;18.30;99.90
20384;DHT22;46458;50.966;7.002;2022-08-21T02:03:46;18.40;99.90
20384;DHT22;46458;50.966;7.002;2022-08-21T02:06:20;18.30;99.90
20384;DHT22;46458;50.966;7.002;2022-08-21T02:08:49;18.30;99.90
20384;DHT22;46458;50.966;7.002;2022-08-21T02:11:19;18.20;99.90
20384;DHT22;46458;50.966;7.002;2022-08-21T02:13:48;18.20;99.90
20384;DHT22;46458;50.966;7.002;2022-08-21T02:16:17;18.20;99.90
20384;DHT22;46458;50.966;7.002;2022-08-21T02:18:47;18.20;99.90
20384;DHT22;46458;50.966;7.002;2022-08-21T02:21:25;18.20;99.90
20384;DHT22;46458;50.966;7.002;2022-08-21T02:23:54;18.20;99.90
20384;DHT22;46458;50.966;7.002;2022-08-21T02:26:26;18.10;99.90
20384;DHT22;46458;50.966;7.002;2022-08-21T02:28:55;18.10;99.90
20384;DHT22;46458;50.966;7.002;2022-08-21T02:31:24;18.10;99.90
20384;DHT22;46458;50.966;7.002;2022-08-21T02:33:53;18.00;99.90
20384;DHT22;46458;50.966;7.002;2022-08-21T02:36:25;18.00;99.90
20384;DHT22;46458;50.966;7.002;2022-08-21T02:38:54;18.00;99.90
20384;DHT22;46458;50.966;7.002;2022-08-21T02:41:23;17.90;99.90
20384;DHT22;46458;50.966;7.002;2022-08-21T02:43:52;17.90;99.90
20384;DHT22;46458;50.966;7.002;2022-08-21T02:46:21;17.90;99.90
20384;DHT22;46458;50.966;7.002;2022-08-21T02:48:50;17.80;99.90
20384;DHT22;46458;50.966;7.002;2022-08-21T02:51:19;17.80;99.90
20384;DHT22;46458;50.966;7.002;2022-08-21T02:53:51;17.70;99.90
20384;DHT22;46458;50.966;7.002;2022-08-21T02:56:20;17.60;99.90
20384;DHT22;46458;50.966;7.002;2022-08-21T02:58:51;17.60;99.90
20384;DHT22;46458;50.966;7.002;2022-08-21T03:01:21;17.50;99.90
20384;DHT22;46458;50.966;7.002;2022-08-21T03:03:50;17.40;99.90
20384;DHT22;46458;50.966;7.002;2022-08-21T03:06:23;17.30;99.90
20384;DHT22;46458;50.966;7.002;2022-08-21T03:08:55;17.20;99.90
20384;DHT22;46458;50.966;7.002;2022-08-21T03:11:24;17.10;99.90
20384;DHT22;46458;50.966;7.002;2022-08-21T03:13:54;17.10;99.90
20384;DHT22;46458;50.966;7.002;2022-08-21T03:16:23;17.10;99.90
20384;DHT22;46458;50.966;7.002;2022-08-21T03:18:53;17.10;99.90
20384;DHT22;46458;50.966;7.002;2022-08-21T03:21:21;17.00;99.90
20384;DHT22;46458;50.966;7.002;2022-08-21T03:23:50;17.00;99.90
20384;DHT22;46458;50.966;7.002;2022-08-21T03:26:24;16.90;99.90
20384;DHT22;46458;50.966;7.002;2022-08-21T03:28:54;17.00;99.90
20384;DHT22;46458;50.966;7.002;2022-08-21T03:31:23;17.00;99.90
20384;DHT22;46458;50.966;7.002;2022-08-21T03:33:54;17.00;99.90
20384;DHT22;46458;50.966;7.002;2022-08-21T03:36:24;17.00;99.90
20384;DHT22;46458;50.966;7.002;2022-08-21T03:38:53;17.00;99.90
20384;DHT22;46458;50.966;7.002;2022-08-21T03:41:25;17.10;99.90
20384;DHT22;46458;50.966;7.002;2022-08-21T03:43:54;17.20;99.90
20384;DHT22;46458;50.966;7.002;2022-08-21T03:46:23;17.20;99.90
20384;DHT22;46458;50.966;7.002;2022-08-21T03:48:52;17.10;99.90
20384;DHT22;46458;50.966;7.002;2022-08-21T03:51:21;17.10;99.90
20384;DHT22;46458;50.966;7.002;2022-08-21T03:53:50;17.00;99.90
20384;DHT22;46458;50.966;7.002;2022-08-21T03:56:20;17.00;99.90
20384;DHT22;46458;50.966;7.002;2022-08-21T03:58:52;17.00;99.90
20384;DHT22;46458;50.966;7.002;2022-08-21T04:01:21;17.00;99.90
20384;DHT22;46458;50.966;7.002;2022-08-21T04:03:50;16.80;99.90
20384;DHT22;46458;50.966;7.002;2022-08-21T04:06:21;16.80;99.90
20384;DHT22;46458;50.966;7.002;2022-08-21T04:08:51;16.90;99.90
20384;DHT22;46458;50.966;7.002;2022-08-21T04:11:23;17.00;99.90
20384;DHT22;46458;50.966;7.002;2022-08-21T04:13:58;16.90;99.90
20384;DHT22;46458;50.966;7.002;2022-08-21T04:16:27;17.00;99.90
20384;DHT22;46458;50.966;7.002;2022-08-21T04:18:57;17.00;99.90
20384;DHT22;46458;50.966;7.002;2022-08-21T04:21:26;17.00;99.90
20384;DHT22;46458;50.966;7.002;2022-08-21T04:23:55;17.00;99.90
20384;DHT22;46458;50.966;7.002;2022-08-21T04:26:25;17.00;99.90
20384;DHT22;46458;50.966;7.002;2022-08-21T04:28:59;16.90;99.90
20384;DHT22;46458;50.966;7.002;2022-08-21T04:31:28;16.90;99.90
20384;DHT22;46458;50.966;7.002;2022-08-21T04:33:57;16.90;99.90
20384;DHT22;46458;50.966;7.002;2022-08-21T04:36:29;16.90;99.90
20384;DHT22;46458;50.966;7.002;2022-08-21T04:38:58;16.70;99.90
20384;DHT22;46458;50.966;7.002;2022-08-21T04:41:27;16.70;99.90
20384;DHT22;46458;50.966;7.002;2022-08-21T04:43:59;16.70;99.90
20384;DHT22;46458;50.966;7.002;2022-08-21T04:46:29;16.70;99.90
20384;DHT22;46458;50.966;7.002;2022-08-21T04:48:57;16.80;99.90
20384;DHT22;46458;50.966;7.002;2022-08-21T04:51:30;16.80;99.90
20384;DHT22;46458;50.966;7.002;2022-08-21T04:54:02;16.60;99.90
20384;DHT22;46458;50.966;7.002;2022-08-21T04:56:38;16.60;99.90
20384;DHT22;46458;50.966;7.002;2022-08-21T04:59:15;16.70;99.90
20384;DHT22;46458;50.966;7.002;2022-08-21T05:01:45;16.70;99.90
20384;DHT22;46458;50.966;7.002;2022-08-21T05:04:18;16.80;99.90
20384;DHT22;46458;50.966;7.002;2022-08-21T05:06:51;16.80;99.90
20384;DHT22;46458;50.966;7.002;2022-08-21T05:09:23;16.90;99.90
20384;DHT22;46458;50.966;7.002;2022-08-21T05:11:52;16.90;99.90
20384;DHT22;46458;50.966;7.002;2022-08-21T05:14:24;16.90;99.90
20384;DHT22;46458;50.966;7.002;2022-08-21T05:16:53;16.90;99.90
20384;DHT22;46458;50.966;7.002;2022-08-21T05:19:22;17.00;99.90
20384;DHT22;46458;50.966;7.002;2022-08-21T05:21:51;17.00;99.90
20384;DHT22;46458;50.966;7.002;2022-08-21T05:24:21;17.00;99.90
20384;DHT22;46458;50.966;7.002;2022-08-21T05:26:50;17.00;99.90
20384;DHT22;46458;50.966;7.002;2022-08-21T05:29:19;16.90;99.90
20384;DHT22;46458;50.966;7.002;2022-08-21T05:31:53;16.90;99.90
20384;DHT22;46458;50.966;7.002;2022-08-21T05:34:23;16.80;99.90
20384;DHT22;46458;50.966;7.002;2022-08-21T05:36:52;16.70;99.90
20384;DHT22;46458;50.966;7.002;2022-08-21T05:39:21;16.70;99.90
20384;DHT22;46458;50.966;7.002;2022-08-21T05:41:50;16.70;99.90
20384;DHT22;46458;50.966;7.002;2022-08-21T05:44:19;16.70;99.90
20384;DHT22;46458;50.966;7.002;2022-08-21T05:46:48;16.70;99.90
20384;DHT22;46458;50.966;7.002;2022-08-21T05:49:19;16.70;99.90
20384;DHT22;46458;50.966;7.002;2022-08-21T05:51:51;16.80;99.90
20384;DHT22;46458;50.966;7.002;2022-08-21T05:54:20;16.90;99.90
20384;DHT22;46458;50.966;7.002;2022-08-21T05:56:49;16.90;99.90
20384;DHT22;46458;50.966;7.002;2022-08-21T05:59:18;17.00;99.90
20384;DHT22;46458;50.966;7.002;2022-08-21T06:01:50;17.10;99.90
20384;DHT22;46458;50.966;7.002;2022-08-21T06:04:22;17.10;99.90
20384;DHT22;46458;50.966;7.002;2022-08-21T06:06:51;17.20;99.90
20384;DHT22;46458;50.966;7.002;2022-08-21T06:09:20;17.20;99.90
20384;DHT22;46458;50.966;7.002;2022-08-21T06:11:48;17.30;99.90
20384;DHT22;46458;50.966;7.002;2022-08-21T06:14:17;17.30;99.90
20384;DHT22;46458;50.966;7.002;2022-08-21T06:16:46;17.30;99.90
20384;DHT22;46458;50.966;7.002;2022-08-21T06:19:15;17.40;99.90
20384;DHT22;46458;50.966;7.002;2022-08-21T06:21:47;17.50;99.90
20384;DHT22;46458;50.966;7.002;2022-08-21T06:24:16;17.50;99.90
20384;DHT22;46458;50.966;7.002;2022-08-21T06:26:45;17.60;99.90
20384;DHT22;46458;50.966;7.002;2022-08-21T06:29:14;17.70;99.90
20384;DHT22;46458;50.966;7.002;2022-08-21T06:31:46;17.70;99.90
20384;DHT22;46458;50.966;7.002;2022-08-21T06:34:16;17.70;99.90
20384;DHT22;46458;50.966;7.002;2022-08-21T06:36:47;17.80;99.90
20384;DHT22;46458;50.966;7.002;2022-08-21T06:39:16;17.80;99.90
20384;DHT22;46458;50.966;7.002;2022-08-21T06:41:45;17.90;99.90
20384;DHT22;46458;50.966;7.002;2022-08-21T06:44:16;17.90;99.90
20384;DHT22;46458;50.966;7.002;2022-08-21T06:46:45;18.00;99.90
20384;DHT22;46458;50.966;7.002;2022-08-21T06:49:14;18.10;99.90
20384;DHT22;46458;50.966;7.002;2022-08-21T06:51:43;18.20;99.90
20384;DHT22;46458;50.966;7.002;2022-08-21T06:54:14;18.30;99.90
20384;DHT22;46458;50.966;7.002;2022-08-21T06:56:46;18.40;99.90
20384;DHT22;46458;50.966;7.002;2022-08-21T06:59:15;18.50;99.90
20384;DHT22;46458;50.966;7.002;2022-08-21T07:01:44;18.60;99.90
20384;DHT22;46458;50.966;7.002;2022-08-21T07:04:16;18.70;99.90
20384;DHT22;46458;50.966;7.002;2022-08-21T07:06:46;18.80;99.90
20384;DHT22;46458;50.966;7.002;2022-08-21T07:09:17;18.80;99.90
20384;DHT22;46458;50.966;7.002;2022-08-21T07:11:50;19.00;99.90
20384;DHT22;46458;50.966;7.002;2022-08-21T07:14:19;19.10;99.90
20384;DHT22;46458;50.966;7.002;2022-08-21T07:16:48;19.20;99.90
20384;DHT22;46458;50.966;7.002;2022-08-21T07:19:18;19.30;99.90
20384;DHT22;46458;50.966;7.002;2022-08-21T07:21:47;19.40;99.90
20384;DHT22;46458;50.966;7.002;2022-08-21T07:24:19;19.50;99.90
20384;DHT22;46458;50.966;7.002;2022-08-21T07:26:48;19.70;99.90
20384;DHT22;46458;50.966;7.002;2022-08-21T07:29:17;19.70;99.90
20384;DHT22;46458;50.966;7.002;2022-08-21T07:31:46;19.90;99.90
20384;DHT22;46458;50.966;7.002;2022-08-21T07:34:15;20.10;99.90
20384;DHT22;46458;50.966;7.002;2022-08-21T07:36:44;20.10;99.90
20384;DHT22;46458;50.966;7.002;2022-08-21T07:39:14;20.20;99.90
20384;DHT22;46458;50.966;7.002;2022-08-21T07:41:45;20.30;99.90
20384;DHT22;46458;50.966;7.002;2022-08-21T07:44:14;20.50;99.90
20384;DHT22;46458;50.966;7.002;2022-08-21T07:46:43;20.60;99.90
20384;DHT22;46458;50.966;7.002;2022-08-21T07:49:12;20.70;99.90
20384;DHT22;46458;50.966;7.002;2022-08-21T07:51:41;20.80;99.90
20384;DHT22;46458;50.966;7.002;2022-08-21T07:54:10;20.90;99.90
20384;DHT22;46458;50.966;7.002;2022-08-21T07:56:39;21.00;99.90
20384;DHT22;46458;50.966;7.002;2022-08-21T07:59:10;21.20;99.90
20384;DHT22;46458;50.966;7.002;2022-08-21T08:01:40;21.40;99.90
20384;DHT22;46458;50.966;7.002;2022-08-21T08:04:15;21.50;99.90
20384;DHT22;46458;50.966;7.002;2022-08-21T08:06:47;21.60;99.90
20384;DHT22;46458;50.966;7.002;2022-08-21T08:09:16;21.80;99.90
20384;DHT22;46458;50.966;7.002;2022-08-21T08:11:48;22.00;99.90
20384;DHT22;46458;50.966;7.002;2022-08-21T08:14:20;22.10;99.90
20384;DHT22;46458;50.966;7.002;2022-08-21T08:16:49;22.40;99.90
20384;DHT22;46458;50.966;7.002;2022-08-21T08:19:19;22.40;99.90
20384;DHT22;46458;50.966;7.002;2022-08-21T08:21:48;22.40;99.90
20384;DHT22;46458;50.966;7.002;2022-08-21T08:24:17;22.50;99.90
20384;DHT22;46458;50.966;7.002;2022-08-21T08:26:46;22.70;99.90
20384;DHT22;46458;50.966;7.002;2022-08-21T08:29:16;22.80;99.90
20384;DHT22;46458;50.966;7.002;2022-08-21T08:31:47;23.00;99.90
20384;DHT22;46458;50.966;7.002;2022-08-21T08:34:16;23.20;99.90
20384;DHT22;46458;50.966;7.002;2022-08-21T08:36:45;23.40;99.90
20384;DHT22;46458;50.966;7.002;2022-08-21T08:39:14;23.60;99.90
20384;DHT22;46458;50.966;7.002;2022-08-21T08:41:45;23.70;99.90
20384;DHT22;46458;50.966;7.002;2022-08-21T08:44:17;23.90;99.90
20384;DHT22;46458;50.966;7.002;2022-08-21T08:46:50;24.00;99.90
20384;DHT22;46458;50.966;7.002;2022-08-21T08:49:22;24.10;99.90
20384;DHT22;46458;50.966;7.002;2022-08-21T08:51:53;24.00;99.90
20384;DHT22;46458;50.966;7.002;2022-08-21T08:54:30;24.40;99.90
20384;DHT22;46458;50.966;7.002;2022-08-21T08:57:01;24.60;99.90
20384;DHT22;46458;50.966;7.002;2022-08-21T08:59:36;24.70;99.90
20384;DHT22;46458;50.966;7.002;2022-08-21T09:02:11;24.80;99.90
20384;DHT22;46458;50.966;7.002;2022-08-21T09:04:41;25.20;99.90
20384;DHT22;46458;50.966;7.002;2022-08-21T09:07:16;25.40;99.90
20384;DHT22;46458;50.966;7.002;2022-08-21T09:09:57;25.60;99.90
20384;DHT22;46458;50.966;7.002;2022-08-21T09:12:34;25.70;99.90
20384;DHT22;46458;50.966;7.002;2022-08-21T09:15:14;25.80;99.90
20384;DHT22;46458;50.966;7.002;2022-08-21T09:17:59;26.00;99.90
20384;DHT22;46458;50.966;7.002;2022-08-21T09:20:38;26.60;99.90
20384;DHT22;46458;50.966;7.002;2022-08-21T09:23:19;26.80;99.90
20384;DHT22;46458;50.966;7.002;2022-08-21T09:25:56;27.20;99.90
20384;DHT22;46458;50.966;7.002;2022-08-21T09:28:31;27.10;99.90
20384;DHT22;46458;50.966;7.002;2022-08-21T09:31:05;27.20;99.90
20384;DHT22;46458;50.966;7.002;2022-08-21T09:33:38;26.80;99.90
20384;DHT22;46458;50.966;7.002;2022-08-21T09:36:07;27.00;99.90
20384;DHT22;46458;50.966;7.002;2022-08-21T09:38:37;27.00;99.90
20384;DHT22;46458;50.966;7.002;2022-08-21T09:41:08;26.40;99.90
20384;DHT22;46458;50.966;7.002;2022-08-21T09:43:38;26.30;99.90
20384;DHT22;46458;50.966;7.002;2022-08-21T09:46:11;26.70;99.90
20384;DHT22;46458;50.966;7.002;2022-08-21T09:48:46;26.80;99.90
20384;DHT22;46458;50.966;7.002;2022-08-21T09:51:17;27.30;99.90
20384;DHT22;46458;50.966;7.002;2022-08-21T09:53:49;26.90;99.90
20384;DHT22;46458;50.966;7.002;2022-08-21T09:56:26;27.00;99.90
20384;DHT22;46458;50.966;7.002;2022-08-21T09:59:20;27.40;99.90
20384;DHT22;46458;50.966;7.002;2022-08-21T10:01:50;27.50;99.90
20384;DHT22;46458;50.966;7.002;2022-08-21T10:04:26;27.20;99.90
20384;DHT22;46458;50.966;7.002;2022-08-21T10:07:06;27.60;99.90
20384;DHT22;46458;50.966;7.002;2022-08-21T10:09:36;27.90;99.90
20384;DHT22;46458;50.966;7.002;2022-08-21T10:12:12;28.60;99.90
20384;DHT22;46458;50.966;7.002;2022-08-21T10:14:49;28.70;99.60
20384;DHT22;46458;50.966;7.002;2022-08-21T10:17:27;28.30;99.40
20384;DHT22;46458;50.966;7.002;2022-08-21T10:20:05;28.00;99.50
20384;DHT22;46458;50.966;7.002;2022-08-21T10:22:41;28.30;99.90
20384;DHT22;46458;50.966;7.002;2022-08-21T10:25:19;28.10;99.90
20384;DHT22;46458;50.966;7.002;2022-08-21T10:27:59;27.80;99.60
20384;DHT22;46458;50.966;7.002;2022-08-21T10:30:37;28.10;99.90
20384;DHT22;46458;50.966;7.002;2022-08-21T10:33:20;28.70;99.20
20384;DHT22;46458;50.966;7.002;2022-08-21T10:36:04;28.50;99.40
20384;DHT22;46458;50.966;7.002;2022-08-21T10:39:03;28.20;99.80
20384;DHT22;46458;50.966;7.002;2022-08-21T10:41:49;27.90;99.90
20384;DHT22;46458;50.966;7.002;2022-08-21T10:44:29;27.60;99.40
20384;DHT22;46458;50.966;7.002;2022-08-21T10:47:07;27.20;99.60
20384;DHT22;46458;50.966;7.002;2022-08-21T10:49:41;27.20;99.30
20384;DHT22;46458;50.966;7.002;2022-08-21T10:52:31;27.60;99.90
20384;DHT22;46458;50.966;7.002;2022-08-21T10:55:09;27.90;99.60
20384;DHT22;46458;50.966;7.002;2022-08-21T10:57:44;27.80;99.70
20384;DHT22;46458;50.966;7.002;2022-08-21T11:00:17;28.00;99.90
20384;DHT22;46458;50.966;7.002;2022-08-21T11:02:51;27.80;99.90
20384;DHT22;46458;50.966;7.002;2022-08-21T11:05:27;27.10;99.70
20384;DHT22;46458;50.966;7.002;2022-08-21T11:08:04;26.70;99.90
20384;DHT22;46458;50.966;7.002;2022-08-21T11:10:39;26.00;99.90
20384;DHT22;46458;50.966;7.002;2022-08-21T11:13:15;26.20;99.90
20384;DHT22;46458;50.966;7.002;2022-08-21T11:15:51;26.20;99.90
20384;DHT22;46458;50.966;7.002;2022-08-21T11:18:26;26.10;99.90
20384;DHT22;46458;50.966;7.002;2022-08-21T11:21:04;25.90;99.90
20384;DHT22;46458;50.966;7.002;2022-08-21T11:23:43;26.50;99.90
20384;DHT22;46458;50.966;7.002;2022-08-21T11:26:19;26.80;99.90
20384;DHT22;46458;50.966;7.002;2022-08-21T11:28:55;27.10;99.90
20384;DHT22;46458;50.966;7.002;2022-08-21T11:31:40;27.30;99.90
20384;DHT22;46458;50.966;7.002;2022-08-21T11:34:21;27.40;99.90
20384;DHT22;46458;50.966;7.002;2022-08-21T11:36:56;27.70;98.90
20384;DHT22;46458;50.966;7.002;2022-08-21T11:39:37;28.50;98.50
20384;DHT22;46458;50.966;7.002;2022-08-21T11:42:17;29.20;98.20
20384;DHT22;46458;50.966;7.002;2022-08-21T11:44:54;29.30;97.60
20384;DHT22;46458;50.966;7.002;2022-08-21T11:47:33;29.60;96.80
20384;DHT22;46458;50.966;7.002;2022-08-21T11:50:14;29.90;96.70
20384;DHT22;46458;50.966;7.002;2022-08-21T11:52:46;32.00;94.50
20384;DHT22;46458;50.966;7.002;2022-08-21T11:55:20;31.00;95.00
20384;DHT22;46458;50.966;7.002;2022-08-21T11:57:55;30.40;95.40
20384;DHT22;46458;50.966;7.002;2022-08-21T12:00:27;29.40;95.60
20384;DHT22;46458;50.966;7.002;2022-08-21T12:03:06;28.60;96.80
20384;DHT22;46458;50.966;7.002;2022-08-21T12:05:42;27.70;97.30
20384;DHT22;46458;50.966;7.002;2022-08-21T12:08:15;27.30;97.40
20384;DHT22;46458;50.966;7.002;2022-08-21T12:11:05;27.40;97.70
20384;DHT22;46458;50.966;7.002;2022-08-21T12:13:36;27.40;98.60
20384;DHT22;46458;50.966;7.002;2022-08-21T12:16:08;27.70;98.50
20384;DHT22;46458;50.966;7.002;2022-08-21T12:18:38;28.00;97.40
20384;DHT22;46458;50.966;7.002;2022-08-21T12:21:22;28.00;97.10
20384;DHT22;46458;50.966;7.002;2022-08-21T12:24:05;27.90;97.30
20384;DHT22;46458;50.966;7.002;2022-08-21T12:26:53;28.10;97.10
20384;DHT22;46458;50.966;7.002;2022-08-21T12:29:30;27.90;97.20
20384;DHT22;46458;50.966;7.002;2022-08-21T12:32:02;27.90;97.10
20384;DHT22;46458;50.966;7.002;2022-08-21T12:34:37;27.40;97.60
20384;DHT22;46458;50.966;7.002;2022-08-21T12:37:18;27.60;97.40
20384;DHT22;46458;50.966;7.002;2022-08-21T12:39:52;28.20;96.70
20384;DHT22;46458;50.966;7.002;2022-08-21T12:42:33;29.80;95.80
20384;DHT22;46458;50.966;7.002;2022-08-21T12:45:14;31.70;93.70
20384;DHT22;46458;50.966;7.002;2022-08-21T12:47:47;33.30;91.40
20384;DHT22;46458;50.966;7.002;2022-08-21T12:50:20;33.80;90.50
20384;DHT22;46458;50.966;7.002;2022-08-21T12:52:54;33.70;90.50
20384;DHT22;46458;50.966;7.002;2022-08-21T12:55:29;33.00;89.90
20384;DHT22;46458;50.966;7.002;2022-08-21T12:58:01;33.00;90.60
20384;DHT22;46458;50.966;7.002;2022-08-21T13:00:30;32.90;90.10
20384;DHT22;46458;50.966;7.002;2022-08-21T13:03:00;31.90;89.20
20384;DHT22;46458;50.966;7.002;2022-08-21T13:05:32;30.70;91.20
20384;DHT22;46458;50.966;7.002;2022-08-21T13:08:04;30.00;93.10
20384;DHT22;46458;50.966;7.002;2022-08-21T13:10:34;29.40;93.50
20384;DHT22;46458;50.966;7.002;2022-08-21T13:13:11;29.10;94.50
20384;DHT22;46458;50.966;7.002;2022-08-21T13:15:42;29.50;94.00
20384;DHT22;46458;50.966;7.002;2022-08-21T13:18:20;29.80;93.70
20384;DHT22;46458;50.966;7.002;2022-08-21T13:20:49;29.90;93.70
20384;DHT22;46458;50.966;7.002;2022-08-21T13:23:22;30.20;93.20
20384;DHT22;46458;50.966;7.002;2022-08-21T13:25:52;31.10;92.90
20384;DHT22;46458;50.966;7.002;2022-08-21T13:28:31;31.70;91.80
20384;DHT22;46458;50.966;7.002;2022-08-21T13:31:07;31.10;91.30
20384;DHT22;46458;50.966;7.002;2022-08-21T13:33:40;29.70;92.50
20384;DHT22;46458;50.966;7.002;2022-08-21T13:36:18;29.20;93.20
20384;DHT22;46458;50.966;7.002;2022-08-21T13:38:48;29.10;93.70
20384;DHT22;46458;50.966;7.002;2022-08-21T13:41:22;29.00;94.00
20384;DHT22;46458;50.966;7.002;2022-08-21T13:44:01;28.80;93.70
20384;DHT22;46458;50.966;7.002;2022-08-21T13:46:38;29.60;94.30
20384;DHT22;46458;50.966;7.002;2022-08-21T13:49:08;30.00;93.80
20384;DHT22;46458;50.966;7.002;2022-08-21T13:51:38;30.10;93.50
20384;DHT22;46458;50.966;7.002;2022-08-21T13:54:22;30.00;93.70
20384;DHT22;46458;50.966;7.002;2022-08-21T13:56:53;29.90;93.40
20384;DHT22;46458;50.966;7.002;2022-08-21T13:59:30;29.90;93.60
20384;DHT22;46458;50.966;7.002;2022-08-21T14:02:01;29.90;93.30
20384;DHT22;46458;50.966;7.002;2022-08-21T14:04:38;30.00;93.00
20384;DHT22;46458;50.966;7.002;2022-08-21T14:07:16;30.60;92.80
20384;DHT22;46458;50.966;7.002;2022-08-21T14:09:47;31.10;92.60
20384;DHT22;46458;50.966;7.002;2022-08-21T14:12:25;30.80;92.50
20384;DHT22;46458;50.966;7.002;2022-08-21T14:14:58;30.60;92.60
20384;DHT22;46458;50.966;7.002;2022-08-21T14:17:33;30.60;92.40
20384;DHT22;46458;50.966;7.002;2022-08-21T14:20:06;30.80;92.50
20384;DHT22;46458;50.966;7.002;2022-08-21T14:22:41;30.70;92.40
20384;DHT22;46458;50.966;7.002;2022-08-21T14:25:13;30.80;92.70
20384;DHT22;46458;50.966;7.002;2022-08-21T14:27:45;31.00;91.60
20384;DHT22;46458;50.966;7.002;2022-08-21T14:30:28;31.00;92.10
20384;DHT22;46458;50.966;7.002;2022-08-21T14:32:59;31.70;91.90
20384;DHT22;46458;50.966;7.002;2022-08-21T14:35:28;32.40;91.00
20384;DHT22;46458;50.966;7.002;2022-08-21T14:37:58;32.10;91.00
20384;DHT22;46458;50.966;7.002;2022-08-21T14:40:30;31.00;90.60
20384;DHT22;46458;50.966;7.002;2022-08-21T14:42:58;30.40;91.10
20384;DHT22;46458;50.966;7.002;2022-08-21T14:45:31;29.80;91.60
20384;DHT22;46458;50.966;7.002;2022-08-21T14:48:00;28.70;91.80
20384;DHT22;46458;50.966;7.002;2022-08-21T14:50:29;28.10;92.50
20384;DHT22;46458;50.966;7.002;2022-08-21T14:53:00;27.90;93.40
20384;DHT22;46458;50.966;7.002;2022-08-21T14:55:30;27.70;93.90
20384;DHT22;46458;50.966;7.002;2022-08-21T14:58:20;27.60;94.30
20384;DHT22;46458;50.966;7.002;2022-08-21T15:00:54;27.40;94.50
20384;DHT22;46458;50.966;7.002;2022-08-21T15:03:24;27.30;93.90
20384;DHT22;46458;50.966;7.002;2022-08-21T15:05:53;27.20;93.90
20384;DHT22;46458;50.966;7.002;2022-08-21T15:08:22;27.20;94.00
20384;DHT22;46458;50.966;7.002;2022-08-21T15:10:52;27.10;93.90
20384;DHT22;46458;50.966;7.002;2022-08-21T15:13:21;27.10;93.20
20384;DHT22;46458;50.966;7.002;2022-08-21T15:15:53;27.00;94.00
20384;DHT22;46458;50.966;7.002;2022-08-21T15:18:24;27.00;94.00
20384;DHT22;46458;50.966;7.002;2022-08-21T15:20:53;26.90;94.00
20384;DHT22;46458;50.966;7.002;2022-08-21T15:23:22;26.70;93.60
20384;DHT22;46458;50.966;7.002;2022-08-21T15:25:52;26.50;93.90
20384;DHT22;46458;50.966;7.002;2022-08-21T15:28:24;26.40;94.20
20384;DHT22;46458;50.966;7.002;2022-08-21T15:30:55;26.30;94.70
20384;DHT22;46458;50.966;7.002;2022-08-21T15:33:24;26.40;94.70
20384;DHT22;46458;50.966;7.002;2022-08-21T15:35:53;26.50;95.00
20384;DHT22;46458;50.966;7.002;2022-08-21T15:38:22;26.50;94.80
20384;DHT22;46458;50.966;7.002;2022-08-21T15:40:52;26.30;94.40
20384;DHT22;46458;50.966;7.002;2022-08-21T15:43:23;26.20;94.80
20384;DHT22;46458;50.966;7.002;2022-08-21T15:45:57;26.10;94.50
20384;DHT22;46458;50.966;7.002;2022-08-21T15:48:26;26.10;95.10
20384;DHT22;46458;50.966;7.002;2022-08-21T15:50:55;26.00;95.00
20384;DHT22;46458;50.966;7.002;2022-08-21T15:53:24;25.90;95.00
20384;DHT22;46458;50.966;7.002;2022-08-21T15:55:54;25.90;95.30
20384;DHT22;46458;50.966;7.002;2022-08-21T15:58:22;26.10;95.70
20384;DHT22;46458;50.966;7.002;2022-08-21T16:00:51;26.60;95.30